Montreal International (Mirabel) Airport

CYMX | YMX

Montreal , Quebec , Canada

Thursday, June 4th, 2020 | 18:52

Weather

CYMX 042200Z 26009G15KT 230V320 45SM FEW070 FEW260 25/09 A2972 RMK CU2CI1 CI TR SLP067 DENSITY ALT 1700FT

Charts

No Charts Available

Gates

52 Available

Runways

2 Available

Active ATC

Events -Coming Soon-

1 Events Coming Up Soon

Next event:
CYMX Flyout